createdAt,value
2019-06-19T00:02:59.933Z,0
2019-06-19T00:03:42.940Z,0
2019-06-19T00:04:22.924Z,0
2019-06-19T00:05:03.592Z,0
2019-06-19T00:05:43.080Z,0
2019-06-19T00:06:23.133Z,0
2019-06-19T00:07:03.526Z,0
2019-06-19T00:07:43.463Z,0
2019-06-19T00:08:23.886Z,0
2019-06-19T00:09:04.392Z,0
2019-06-19T00:17:12.861Z,0
2019-06-19T00:17:50.619Z,0
2019-06-19T00:18:33.157Z,0
2019-06-19T00:19:13.255Z,0
2019-06-19T00:19:53.394Z,0
2019-06-19T00:20:33.041Z,0
2019-06-19T00:21:12.968Z,0
2019-06-19T00:21:53.423Z,0
2019-06-19T00:22:34.017Z,0
2019-06-19T00:30:01.603Z,0
2019-06-19T00:30:40.741Z,0
2019-06-19T00:31:22.098Z,0
2019-06-19T00:32:01.636Z,0
2019-06-19T00:32:42.100Z,0
2019-06-19T00:33:24.401Z,0
2019-06-19T00:41:30.798Z,0
2019-06-19T00:42:10.897Z,0
2019-06-19T00:42:51.649Z,0
2019-06-19T00:43:31.986Z,0
2019-06-19T00:44:12.053Z,0
2019-06-19T00:44:52.532Z,0
2019-06-19T00:45:32.981Z,0
2019-06-19T00:46:13.441Z,0
2019-06-19T00:46:53.888Z,0
2019-06-19T00:47:34.360Z,0
2019-06-19T00:53:01.396Z,0
2019-06-19T00:53:42.114Z,0
2019-06-19T00:54:21.347Z,0
2019-06-19T00:55:01.986Z,0
2019-06-19T00:55:42.031Z,0
2019-06-19T00:56:22.558Z,0
2019-06-19T00:57:03.005Z,0
2019-06-19T00:57:44.372Z,0
2019-06-19T01:05:11.227Z,0
2019-06-19T01:05:51.758Z,0
2019-06-19T01:06:31.014Z,0
2019-06-19T01:07:11.104Z,0
2019-06-19T01:07:51.612Z,0
2019-06-19T01:09:13.567Z,0
2019-06-19T01:09:54.055Z,0
2019-06-19T01:10:34.594Z,0
2019-06-19T01:15:21.589Z,0
2019-06-19T01:16:01.557Z,0
2019-06-19T01:16:41.876Z,0
2019-06-19T01:17:21.537Z,0
2019-06-19T01:18:01.996Z,0
2019-06-19T01:18:42.452Z,0
2019-06-19T01:19:22.910Z,0
2019-06-19T01:20:03.492Z,0
2019-06-19T01:20:43.871Z,0
2019-06-19T01:21:24.381Z,0
2019-06-19T01:26:11.765Z,0
2019-06-19T01:26:51.217Z,0
2019-06-19T01:27:31.361Z,0
2019-06-19T01:28:11.855Z,0
2019-06-19T01:28:51.758Z,0
2019-06-19T01:29:32.222Z,0
2019-06-19T01:30:15.393Z,0
2019-06-19T01:34:21.502Z,0
2019-06-19T01:35:01.502Z,0
2019-06-19T01:35:41.998Z,0
2019-06-19T01:36:22.525Z,0
2019-06-19T01:37:02.967Z,0
2019-06-19T01:37:43.441Z,0
2019-06-19T01:38:23.910Z,0
2019-06-19T01:39:04.420Z,0
2019-06-19T01:42:30.689Z,0
2019-06-19T01:43:10.815Z,0
2019-06-19T01:43:51.317Z,0
2019-06-19T01:44:31.471Z,0
2019-06-19T01:45:11.927Z,0
2019-06-19T01:45:52.382Z,0
2019-06-19T01:46:32.905Z,0
2019-06-19T01:47:13.327Z,0
2019-06-19T01:47:53.805Z,0
2019-06-19T01:48:34.439Z,0
2019-06-19T01:49:14.692Z,0
2019-06-19T01:56:01.357Z,0
2019-06-19T01:56:40.748Z,0
2019-06-19T01:57:21.526Z,0
2019-06-19T01:58:01.397Z,0
2019-06-19T01:58:41.913Z,0
2019-06-19T02:00:02.817Z,0
2019-06-19T02:00:43.356Z,0
2019-06-19T02:01:23.768Z,0
2019-06-19T02:02:04.249Z,0
2019-06-19T02:05:31.619Z,0
2019-06-19T02:06:11.693Z,0
2019-06-19T02:07:34.218Z,0
2019-06-19T02:08:14.741Z,0
2019-06-19T02:15:01.394Z,0
2019-06-19T02:15:41.731Z,0
2019-06-19T02:16:20.915Z,0
2019-06-19T02:17:03.631Z,0
2019-06-19T02:17:44.072Z,0
2019-06-19T02:18:24.452Z,0
2019-06-19T02:22:30.684Z,0
2019-06-19T02:23:11.316Z,0
2019-06-19T02:23:50.939Z,0
2019-06-19T02:24:31.396Z,0
2019-06-19T02:25:11.900Z,0
2019-06-19T02:25:54.294Z,0
2019-06-19T02:26:32.815Z,0
2019-06-19T02:27:13.246Z,0
2019-06-19T02:27:53.726Z,0
2019-06-19T02:28:34.189Z,0
2019-06-19T02:29:14.650Z,0
2019-06-19T02:36:42.960Z,0
2019-06-19T02:37:22.326Z,0
2019-06-19T02:38:02.350Z,0
2019-06-19T02:38:41.877Z,0
2019-06-19T02:40:02.441Z,0
2019-06-19T02:40:42.949Z,0
2019-06-19T02:41:23.405Z,0
2019-06-19T02:42:03.894Z,0
2019-06-19T02:42:44.323Z,0
2019-06-19T02:50:50.065Z,0
2019-06-19T02:51:30.538Z,0
2019-06-19T02:52:11.005Z,0
2019-06-19T02:52:51.491Z,0
2019-06-19T02:53:36.040Z,0
2019-06-19T02:59:40.054Z,0
2019-06-19T03:00:20.509Z,0
2019-06-19T03:01:10.525Z,0
2019-06-19T03:01:42.154Z,0
2019-06-19T03:02:22.607Z,0
2019-06-19T03:03:03.095Z,0
2019-06-19T03:03:43.577Z,0
2019-06-19T03:04:24.017Z,0
2019-06-19T03:05:04.481Z,0
2019-06-19T03:13:10.158Z,0
2019-06-19T03:13:50.630Z,0
2019-06-19T03:14:31.118Z,0
2019-06-19T03:15:11.590Z,0
2019-06-19T03:15:52.082Z,0
2019-06-19T03:16:32.486Z,0
2019-06-19T03:17:12.965Z,0
2019-06-19T03:17:53.412Z,0
2019-06-19T03:18:34.087Z,0
2019-06-19T03:19:14.621Z,0
2019-06-19T03:24:00.125Z,0
2019-06-19T03:24:41.039Z,0
2019-06-19T03:25:21.571Z,0
2019-06-19T03:26:02.079Z,0
2019-06-19T03:26:42.532Z,0
2019-06-19T03:27:23.998Z,0
2019-06-19T03:28:04.045Z,0
2019-06-19T03:28:44.548Z,0
2019-06-19T03:34:50.644Z,0
2019-06-19T03:35:31.182Z,0
2019-06-19T03:36:13.820Z,0
2019-06-19T03:38:20.288Z,5
2019-06-19T03:39:00.732Z,5
2019-06-19T03:39:41.621Z,5
2019-06-19T03:40:21.688Z,5
2019-06-19T03:41:02.185Z,5
2019-06-19T03:41:43.014Z,5
2019-06-19T03:42:23.392Z,5
2019-06-19T03:43:03.895Z,5
2019-06-19T03:43:44.303Z,5
2019-06-19T03:51:50.125Z,10
2019-06-19T03:52:30.581Z,10
2019-06-19T03:53:11.062Z,10
2019-06-19T03:53:51.565Z,10
2019-06-19T03:54:31.989Z,10
2019-06-19T03:55:12.497Z,10
2019-06-19T03:55:53.695Z,10
2019-06-19T03:56:33.444Z,10
2019-06-19T03:57:13.837Z,10
2019-06-19T03:57:54.309Z,10
2019-06-19T03:58:34.773Z,10
2019-06-19T04:06:00.215Z,15
2019-06-19T04:06:40.609Z,15
2019-06-19T04:07:21.070Z,20
2019-06-19T04:08:01.557Z,20
2019-06-19T04:08:42.171Z,20
2019-06-19T04:10:03.014Z,20
2019-06-19T04:10:43.530Z,20
2019-06-19T04:16:51.597Z,140
2019-06-19T04:17:31.684Z,160
2019-06-19T04:18:15.453Z,165
2019-06-19T04:21:33.572Z,225
2019-06-19T04:22:18.587Z,230
2019-06-19T04:23:03.042Z,230
2019-06-19T04:23:43.529Z,215
2019-06-19T04:24:25.551Z,195
2019-06-19T04:25:06.050Z,170
2019-06-19T04:25:46.580Z,150
2019-06-19T04:26:27.016Z,130
2019-06-19T04:27:08.509Z,120
2019-06-19T05:06:40.618Z,180
2019-06-19T05:07:21.165Z,180
2019-06-19T05:08:02.001Z,185
2019-06-19T05:09:24.549Z,190
2019-06-19T05:10:04.910Z,190
2019-06-19T05:10:45.548Z,190
2019-06-19T05:11:28.167Z,195
2019-06-19T05:12:08.726Z,200
2019-06-19T05:17:34.023Z,240
2019-06-19T05:18:14.482Z,240
2019-06-19T05:18:54.924Z,240
2019-06-19T05:19:35.463Z,245
2019-06-19T05:20:15.927Z,245
2019-06-19T05:20:56.392Z,245
2019-06-19T05:21:36.856Z,255
2019-06-19T05:22:17.320Z,265
2019-06-19T05:22:57.792Z,265
2019-06-19T05:27:44.615Z,255
2019-06-19T05:28:25.121Z,250
2019-06-19T05:29:05.593Z,255
2019-06-19T05:29:46.066Z,255
2019-06-19T05:30:26.574Z,255
2019-06-19T05:31:07.645Z,255
2019-06-19T05:31:48.123Z,260
2019-06-19T05:32:36.486Z,265
2019-06-19T05:37:14.715Z,280
2019-06-19T05:37:55.141Z,280
2019-06-19T05:38:35.648Z,275
2019-06-19T05:39:16.256Z,280
2019-06-19T05:39:56.774Z,280
2019-06-19T05:40:37.373Z,280
2019-06-19T05:41:17.883Z,280
2019-06-19T05:41:58.365Z,285
2019-06-19T05:45:24.605Z,300
2019-06-19T05:46:07.730Z,300
2019-06-19T05:46:48.213Z,300
2019-06-19T05:48:14.206Z,305
2019-06-19T05:48:54.451Z,305
2019-06-19T05:49:35.289Z,305
2019-06-19T05:50:16.280Z,310
2019-06-19T05:50:57.143Z,315
2019-06-19T05:54:24.538Z,330
2019-06-19T05:55:05.373Z,325
2019-06-19T05:55:46.411Z,330
2019-06-19T05:56:29.220Z,335
2019-06-19T05:57:16.277Z,345
2019-06-19T05:57:57.399Z,350
2019-06-19T05:58:38.490Z,360
2019-06-19T06:00:45.799Z,350
2019-06-19T06:01:26.834Z,350
2019-06-19T06:02:07.881Z,350
2019-06-19T06:04:55.514Z,365
2019-06-19T06:05:37.085Z,380
2019-06-19T06:06:17.783Z,385
2019-06-19T06:09:04.428Z,395
2019-06-19T06:09:45.098Z,395
2019-06-19T06:10:27.344Z,400
2019-06-19T06:11:07.901Z,410
2019-06-19T06:13:14.903Z,425
2019-06-19T06:13:57.484Z,440
2019-06-19T06:14:37.925Z,450
2019-06-19T06:15:19.216Z,460
2019-06-19T06:20:44.486Z,535
2019-06-19T06:21:26.125Z,570
2019-06-19T06:22:06.656Z,750
2019-06-19T06:22:47.159Z,1015
2019-06-19T06:23:27.632Z,1335
2019-06-19T06:28:45.486Z,1060
2019-06-19T06:29:25.972Z,1115
2019-06-19T06:30:06.607Z,1145
2019-06-19T06:30:47.112Z,1115
2019-06-19T06:35:32.642Z,1185
2019-06-19T06:36:13.110Z,1220
2019-06-19T06:36:53.591Z,1255
2019-06-19T06:37:35.821Z,1270
2019-06-19T06:38:16.290Z,1225
2019-06-19T06:38:56.822Z,1165
2019-06-19T06:39:37.360Z,1125
2019-06-19T06:45:45.170Z,1390
2019-06-19T06:46:25.904Z,1350
2019-06-19T06:47:47.262Z,1225
2019-06-19T06:50:32.482Z,495
2019-06-19T06:51:13.353Z,485
2019-06-19T06:51:55.455Z,480
2019-06-19T06:56:02.822Z,465
2019-06-19T06:56:43.251Z,460
2019-06-19T06:57:23.755Z,460
2019-06-19T06:58:04.331Z,430
2019-06-19T06:58:45.780Z,425
2019-06-19T06:59:26.613Z,450
2019-06-19T07:02:54.909Z,460
2019-06-19T07:03:35.935Z,465
2019-06-19T07:04:16.374Z,470
2019-06-19T07:04:57.091Z,480
2019-06-19T07:09:42.370Z,500
2019-06-19T07:10:23.705Z,480
2019-06-19T07:11:04.276Z,480
2019-06-19T07:11:45.412Z,475
2019-06-19T07:12:26.024Z,470
2019-06-19T07:13:06.516Z,465
2019-06-19T07:18:21.705Z,450
2019-06-19T07:19:04.799Z,450
2019-06-19T07:19:46.249Z,450
2019-06-19T07:20:28.511Z,440
2019-06-19T07:21:10.734Z,440
2019-06-19T07:24:36.554Z,140
2019-06-19T07:25:17.972Z,200
2019-06-19T07:25:58.362Z,355
2019-06-19T07:26:52.138Z,270
2019-06-19T07:27:19.960Z,380
2019-06-19T07:28:00.304Z,105
2019-06-19T07:28:41.522Z,85
2019-06-19T07:42:18.039Z,70
2019-06-19T07:42:58.402Z,65
2019-06-19T07:43:41.642Z,65
2019-06-19T07:44:22.306Z,70
2019-06-19T07:48:31.988Z,55
2019-06-19T07:49:15.309Z,55
2019-06-19T07:49:53.685Z,55
2019-06-19T07:50:36.206Z,55
2019-06-19T07:52:46.753Z,105
2019-06-19T07:54:55.650Z,105
2019-06-19T07:59:02.013Z,90
2019-06-19T07:59:42.610Z,125
2019-06-19T08:00:24.395Z,105
2019-06-19T08:03:11.640Z,90
2019-06-19T08:03:57.747Z,115
2019-06-19T08:04:32.478Z,100
2019-06-19T08:05:13.456Z,90
2019-06-19T08:05:53.803Z,90
2019-06-19T08:06:34.323Z,125
2019-06-19T08:07:14.876Z,125
2019-06-19T08:07:55.888Z,130
2019-06-19T08:08:36.423Z,125
2019-06-19T08:12:01.738Z,120
2019-06-19T08:12:43.350Z,120
2019-06-19T08:13:23.847Z,115
2019-06-19T08:14:05.708Z,115
2019-06-19T08:16:52.347Z,110
2019-06-19T08:17:36.353Z,110
2019-06-19T08:33:32.951Z,85
2019-06-19T08:34:14.678Z,80
2019-06-19T08:34:54.482Z,80
2019-06-19T08:37:39.920Z,70
2019-06-19T08:38:20.672Z,70
2019-06-19T08:39:02.208Z,70
2019-06-19T08:40:27.004Z,70
2019-06-19T08:41:09.709Z,70
2019-06-19T08:42:31.167Z,70
2019-06-19T08:45:58.649Z,65
2019-06-19T08:48:47.084Z,65
2019-06-19T08:49:28.778Z,65
2019-06-19T08:50:10.013Z,100
2019-06-19T08:50:50.765Z,80
2019-06-19T08:51:31.827Z,70
2019-06-19T08:52:58.254Z,100
2019-06-19T08:53:38.405Z,105
2019-06-19T08:54:21.106Z,105
2019-06-19T08:55:51.017Z,80
2019-06-19T08:56:31.772Z,80
2019-06-19T09:00:38.074Z,95
2019-06-19T09:01:23.303Z,90
2019-06-19T09:03:30.045Z,70
2019-06-19T09:04:10.732Z,65
2019-06-19T09:04:53.367Z,65
2019-06-19T09:05:36.966Z,70
2019-06-19T09:06:17.617Z,65
2019-06-19T09:06:59.367Z,65
2019-06-19T09:07:39.593Z,95
2019-06-19T09:08:21.951Z,80
2019-06-19T09:13:07.582Z,100
2019-06-19T09:13:48.201Z,100
2019-06-19T09:14:28.776Z,85
2019-06-19T09:15:11.234Z,95
2019-06-19T09:15:49.897Z,90
2019-06-19T09:16:31.575Z,95
2019-06-19T09:17:11.985Z,90
2019-06-19T09:19:56.870Z,65
2019-06-19T09:20:37.387Z,85
2019-06-19T09:21:17.882Z,95
2019-06-19T09:21:59.514Z,95
2019-06-19T09:22:39.891Z,95
2019-06-19T09:23:20.491Z,85
2019-06-19T09:25:27.321Z,95
2019-06-19T09:26:07.270Z,95
2019-06-19T09:26:48.079Z,95
2019-06-19T09:27:29.323Z,95
2019-06-19T09:28:09.663Z,90
2019-06-19T09:28:51.194Z,90
2019-06-19T09:32:17.155Z,75
2019-06-19T09:32:58.559Z,80
2019-06-19T09:33:39.107Z,80
2019-06-19T09:34:21.410Z,85
2019-06-19T09:38:26.901Z,85
2019-06-19T09:39:08.328Z,80
2019-06-19T09:39:48.957Z,75
2019-06-19T09:40:29.378Z,70
2019-06-19T09:52:48.939Z,75
2019-06-19T09:53:30.968Z,70
2019-06-19T09:54:11.549Z,75
2019-06-19T09:54:52.253Z,75
2019-06-19T09:55:33.525Z,75
2019-06-19T09:56:15.221Z,75
2019-06-19T09:59:41.853Z,65
2019-06-19T10:00:24.019Z,65
2019-06-19T10:01:04.494Z,60
2019-06-19T10:03:51.910Z,50
2019-06-19T10:04:34.156Z,50
2019-06-19T10:05:14.841Z,45
2019-06-19T10:05:55.155Z,45
2019-06-19T10:08:41.284Z,40
2019-06-19T10:09:21.990Z,40
2019-06-19T10:10:02.478Z,35
2019-06-19T10:11:23.770Z,35
2019-06-19T10:12:04.407Z,30
2019-06-19T10:12:44.924Z,30
2019-06-19T10:13:25.333Z,25
2019-06-19T10:17:31.133Z,20
2019-06-19T10:18:12.480Z,15
2019-06-19T10:21:40.807Z,15
2019-06-19T10:22:22.805Z,10
2019-06-19T10:23:03.405Z,10
2019-06-19T10:23:45.602Z,10
2019-06-19T10:27:51.067Z,10
2019-06-19T10:28:31.964Z,10
2019-06-19T10:29:12.449Z,10
2019-06-19T10:29:53.046Z,10
2019-06-19T11:07:31.374Z,40
2019-06-19T11:08:14.195Z,35
2019-06-19T11:08:53.571Z,35
2019-06-19T11:10:15.516Z,30
2019-06-19T11:10:56.070Z,30
2019-06-19T11:11:36.602Z,25
2019-06-19T11:12:17.099Z,25
2019-06-19T11:12:57.642Z,25
2019-06-19T11:13:38.209Z,25
2019-06-19T11:14:19.410Z,20
2019-06-19T11:18:26.266Z,25
2019-06-19T11:19:06.161Z,25
2019-06-19T11:20:27.561Z,30
2019-06-19T11:21:08.998Z,30
2019-06-19T11:21:50.263Z,35
2019-06-19T11:24:10.990Z,40
2019-06-19T11:24:51.453Z,40
2019-06-19T11:25:31.998Z,40
2019-06-19T11:27:33.481Z,45
2019-06-19T11:28:14.161Z,45
2019-06-19T11:28:56.499Z,45
2019-06-19T11:33:46.210Z,35
2019-06-19T11:34:27.710Z,30
2019-06-19T11:41:13.388Z,25
2019-06-19T11:41:54.068Z,25
2019-06-19T11:42:34.527Z,25
2019-06-19T11:43:15.078Z,25
2019-06-19T11:43:55.549Z,25
2019-06-19T11:44:36.178Z,25
2019-06-19T11:45:16.659Z,25
2019-06-19T11:45:57.145Z,25
2019-06-19T11:46:37.619Z,25
2019-06-19T11:47:18.551Z,30
2019-06-19T11:53:23.164Z,40
2019-06-19T11:54:03.854Z,45
2019-06-19T11:54:44.373Z,45
2019-06-19T11:55:24.804Z,50
2019-06-19T11:56:05.281Z,55
2019-06-19T11:56:45.788Z,55
2019-06-19T11:57:26.258Z,55
2019-06-19T11:58:06.720Z,55
2019-06-19T11:58:47.233Z,60
2019-06-19T11:59:27.667Z,55
2019-06-19T12:06:53.375Z,45
2019-06-19T12:07:33.848Z,50
2019-06-19T12:08:14.325Z,50
2019-06-19T12:08:54.826Z,50
2019-06-19T12:09:35.337Z,55
2019-06-19T12:10:15.889Z,55
2019-06-19T12:10:56.358Z,60
2019-06-19T12:11:36.849Z,60
2019-06-19T12:12:17.340Z,60
2019-06-19T12:12:57.854Z,60
2019-06-19T12:18:23.272Z,55
2019-06-19T12:19:03.748Z,55
2019-06-19T12:19:44.518Z,55
2019-06-19T12:20:24.986Z,55
2019-06-19T12:21:05.468Z,55
2019-06-19T12:21:45.970Z,55
2019-06-19T12:22:26.446Z,55
2019-06-19T12:23:06.917Z,55
2019-06-19T12:24:30.990Z,50
2019-06-19T12:28:35.354Z,45
2019-06-19T12:29:15.936Z,45
2019-06-19T12:30:05.642Z,45
2019-06-19T12:34:03.679Z,40
2019-06-19T12:34:45.524Z,40
2019-06-19T12:35:27.473Z,40
2019-06-19T12:36:07.994Z,40
2019-06-19T12:39:33.542Z,40
2019-06-19T12:40:14.097Z,40
2019-06-19T12:40:54.887Z,45
2019-06-19T12:41:35.563Z,45
2019-06-19T12:42:16.223Z,45
2019-06-19T12:44:57.204Z,45
2019-06-19T12:45:37.989Z,45
2019-06-19T12:46:20.125Z,45
2019-06-19T12:47:00.626Z,45
2019-06-19T12:47:41.360Z,45
2019-06-19T12:48:22.501Z,45
2019-06-19T12:49:03.023Z,45
2019-06-19T12:49:43.685Z,40
2019-06-19T12:51:49.453Z,40
2019-06-19T12:52:31.005Z,40
2019-06-19T12:53:11.576Z,40
2019-06-19T12:53:52.069Z,40
2019-06-19T12:54:32.786Z,40
2019-06-19T12:55:13.411Z,45
2019-06-19T12:55:56.093Z,45
2019-06-19T12:58:03.157Z,45
2019-06-19T13:02:09.506Z,50
2019-06-19T13:02:50.101Z,50
2019-06-19T13:03:33.214Z,50
2019-06-19T13:04:13.909Z,55
2019-06-19T13:04:54.288Z,55
2019-06-19T13:08:21.016Z,55
2019-06-19T13:09:02.454Z,50
2019-06-19T13:09:42.210Z,50
2019-06-19T13:10:23.406Z,50
2019-06-19T13:11:03.372Z,50
2019-06-19T13:11:43.901Z,45
2019-06-19T13:12:24.382Z,45
2019-06-19T13:14:29.614Z,45
2019-06-19T13:15:10.187Z,45
2019-06-19T13:15:50.620Z,45
2019-06-19T13:17:14.350Z,45
2019-06-19T13:19:21.906Z,45
2019-06-19T13:20:02.420Z,45
2019-06-19T13:20:43.873Z,45
2019-06-19T13:21:24.412Z,45
2019-06-19T13:24:49.561Z,35
2019-06-19T13:25:30.089Z,35
2019-06-19T13:26:10.629Z,35
2019-06-19T13:26:52.077Z,30
2019-06-19T13:27:33.523Z,30
2019-06-19T13:28:59.386Z,30
2019-06-19T13:29:39.948Z,30
2019-06-19T13:30:20.526Z,30
2019-06-19T13:31:00.986Z,30
2019-06-19T13:31:44.014Z,30
2019-06-19T13:37:49.453Z,45
2019-06-19T13:38:29.969Z,45
2019-06-19T13:39:10.434Z,55
2019-06-19T13:39:52.055Z,60
2019-06-19T13:40:35.925Z,60
2019-06-19T13:44:40.283Z,65
2019-06-19T13:45:20.780Z,70
2019-06-19T13:46:01.281Z,70
2019-06-19T13:46:41.927Z,70
2019-06-19T13:47:22.459Z,65
2019-06-19T13:48:05.439Z,70
2019-06-19T13:48:43.479Z,70
2019-06-19T13:49:23.990Z,70
2019-06-19T13:55:29.494Z,70
2019-06-19T13:56:09.929Z,70
2019-06-19T13:56:50.450Z,70
2019-06-19T13:57:45.640Z,70
2019-06-19T13:58:11.599Z,65
2019-06-19T13:58:52.163Z,65
2019-06-19T13:59:34.187Z,65
2019-06-19T14:01:39.418Z,65
2019-06-19T14:02:19.915Z,65
2019-06-19T14:03:00.376Z,65
2019-06-19T14:03:47.442Z,65
2019-06-19T14:04:21.412Z,65
2019-06-19T14:05:02.676Z,65
2019-06-19T14:09:27.467Z,65
2019-06-19T14:10:14.974Z,65
2019-06-19T14:14:33.069Z,60
2019-06-19T14:15:14.247Z,60
2019-06-19T14:15:53.982Z,60
2019-06-19T14:21:18.908Z,55
2019-06-19T14:22:01.327Z,55
2019-06-19T14:22:41.830Z,55
2019-06-19T14:23:22.461Z,55
2019-06-19T14:30:08.395Z,50
2019-06-19T14:30:49.072Z,50
2019-06-19T14:34:58.951Z,45
2019-06-19T14:35:39.177Z,45
2019-06-19T14:36:20.048Z,45
2019-06-19T14:37:00.405Z,45
2019-06-19T14:37:41.899Z,45
2019-06-19T14:38:21.911Z,45
2019-06-19T14:39:02.743Z,45
2019-06-19T14:45:28.265Z,45
2019-06-19T14:46:08.760Z,45
2019-06-19T14:46:49.242Z,45
2019-06-19T14:48:52.635Z,45
2019-06-19T14:49:33.123Z,45
2019-06-19T14:50:13.599Z,45
2019-06-19T14:50:54.095Z,45
2019-06-19T14:51:34.659Z,45
2019-06-19T14:52:15.129Z,45
2019-06-19T14:52:55.605Z,45
2019-06-19T14:58:23.037Z,45
2019-06-19T14:59:03.569Z,45
2019-06-19T14:59:45.866Z,45
2019-06-19T15:00:26.392Z,45
2019-06-19T15:01:06.923Z,45
2019-06-19T15:01:47.398Z,45
2019-06-19T15:06:34.873Z,45
2019-06-19T15:07:15.562Z,45
2019-06-19T15:07:59.479Z,45
2019-06-19T15:08:36.893Z,45
2019-06-19T15:09:17.290Z,40
2019-06-19T15:14:42.559Z,40
2019-06-19T15:15:23.063Z,40
2019-06-19T15:16:03.489Z,40
2019-06-19T15:16:43.977Z,40
2019-06-19T15:17:24.634Z,40
2019-06-19T15:18:05.136Z,40
2019-06-19T15:18:45.627Z,40
2019-06-19T15:19:26.078Z,40
2019-06-19T15:20:06.583Z,40
2019-06-19T15:23:32.691Z,40
2019-06-19T15:24:13.153Z,40
2019-06-19T15:24:53.764Z,40
2019-06-19T15:25:36.073Z,40
2019-06-19T15:26:17.369Z,40
2019-06-19T15:33:04.869Z,40
2019-06-19T15:33:45.683Z,40
2019-06-19T15:34:26.266Z,40
2019-06-19T15:35:06.841Z,35
2019-06-19T15:35:47.311Z,40
2019-06-19T15:43:14.773Z,30
2019-06-19T15:43:55.400Z,35
2019-06-19T15:44:36.531Z,40
2019-06-19T15:45:16.990Z,40
2019-06-19T15:45:57.455Z,30
2019-06-19T15:50:42.589Z,35
2019-06-19T15:51:23.078Z,30
2019-06-19T15:52:03.772Z,30
2019-06-19T15:52:44.333Z,35
2019-06-19T15:53:24.817Z,45
2019-06-19T15:54:05.303Z,40
2019-06-19T15:54:46.365Z,30
2019-06-19T16:02:13.017Z,25
2019-06-19T16:02:55.223Z,25
2019-06-19T16:03:35.675Z,25
2019-06-19T16:04:17.094Z,25
2019-06-19T16:04:57.561Z,25
2019-06-19T16:09:02.586Z,20
2019-06-19T16:09:43.093Z,20
2019-06-19T16:10:23.581Z,20
2019-06-19T16:11:04.069Z,20
2019-06-19T16:11:44.531Z,20
2019-06-19T16:12:24.995Z,20
2019-06-19T16:13:05.517Z,20
2019-06-19T16:13:46.023Z,20
2019-06-19T16:14:26.449Z,20
2019-06-19T16:15:06.942Z,20
2019-06-19T16:15:47.446Z,20
2019-06-19T16:22:32.972Z,20
2019-06-19T16:23:13.451Z,20
2019-06-19T16:23:53.934Z,20
2019-06-19T16:24:34.563Z,20
2019-06-19T16:25:15.017Z,20
2019-06-19T16:25:55.518Z,20
2019-06-19T16:26:36.110Z,20
2019-06-19T17:13:02.946Z,5
2019-06-19T17:13:43.424Z,5
2019-06-19T17:14:23.890Z,5
2019-06-19T17:18:28.653Z,0
2019-06-19T17:19:09.213Z,0
2019-06-19T17:19:49.828Z,0
2019-06-19T17:20:30.297Z,0
2019-06-19T17:21:10.810Z,0
2019-06-19T17:21:52.197Z,0
2019-06-19T17:24:37.588Z,0
2019-06-19T17:25:18.200Z,0
2019-06-19T17:25:58.556Z,0
2019-06-19T17:26:38.994Z,0
2019-06-19T17:27:19.512Z,0
2019-06-19T17:27:59.989Z,0
2019-06-19T17:29:20.907Z,5
2019-06-19T17:30:01.579Z,5
2019-06-19T17:30:42.038Z,5
2019-06-19T17:31:22.503Z,5
2019-06-19T17:36:48.090Z,0
2019-06-19T17:37:28.524Z,0
2019-06-19T17:38:09.016Z,0
2019-06-19T17:38:49.705Z,0
2019-06-19T17:39:30.021Z,0
2019-06-19T17:40:10.487Z,0
2019-06-19T17:40:51.021Z,0
2019-06-19T17:41:31.586Z,0
2019-06-19T17:42:12.090Z,0
2019-06-19T17:46:57.568Z,0
2019-06-19T17:47:38.029Z,0
2019-06-19T17:48:18.666Z,5
2019-06-19T17:48:59.392Z,5
2019-06-19T17:49:39.787Z,5
2019-06-19T17:50:20.216Z,5
2019-06-19T17:51:00.713Z,5
2019-06-19T17:51:41.138Z,5
2019-06-19T17:52:21.601Z,5
2019-06-19T17:53:02.641Z,5
2019-06-19T17:59:08.147Z,5
2019-06-19T17:59:48.673Z,5
2019-06-19T18:00:29.068Z,5
2019-06-19T18:01:09.515Z,5
2019-06-19T18:01:50.398Z,5
2019-06-19T18:02:30.771Z,5
2019-06-19T18:03:11.200Z,5
2019-06-19T18:03:52.101Z,5
2019-06-19T18:09:17.662Z,0
2019-06-19T18:09:58.345Z,0
2019-06-19T18:10:38.728Z,0
2019-06-19T18:11:19.198Z,0
2019-06-19T18:11:59.777Z,0
2019-06-19T18:12:40.202Z,0
2019-06-19T18:13:20.641Z,0
2019-06-19T18:14:02.168Z,0
2019-06-19T18:16:48.005Z,0
2019-06-19T18:17:29.462Z,0
2019-06-19T18:18:10.035Z,0
2019-06-19T18:18:50.950Z,0
2019-06-19T18:19:31.467Z,0
2019-06-19T18:20:11.903Z,0
2019-06-19T18:20:52.378Z,0
2019-06-19T18:24:19.701Z,0
2019-06-19T18:25:00.383Z,0
2019-06-19T18:25:44.537Z,0
2019-06-19T18:27:48.092Z,0
2019-06-19T18:28:29.568Z,0
2019-06-19T18:29:10.086Z,0
2019-06-19T18:30:31.045Z,0
2019-06-19T18:31:12.458Z,0
2019-06-19T18:34:05.067Z,0
2019-06-19T18:34:49.756Z,0
2019-06-19T18:35:27.980Z,0
2019-06-19T18:36:08.494Z,0
2019-06-19T18:36:50.540Z,0
2019-06-19T18:37:31.151Z,0
2019-06-19T18:40:59.021Z,0
2019-06-19T18:41:39.342Z,0
2019-06-19T18:42:21.004Z,0
2019-06-19T18:46:27.612Z,0
2019-06-19T18:47:08.047Z,0
2019-06-19T18:47:48.569Z,0
2019-06-19T18:48:30.630Z,0
2019-06-19T18:50:45.717Z,0
2019-06-19T18:53:38.661Z,0
2019-06-19T18:55:49.131Z,0
2019-06-19T18:56:29.586Z,0
2019-06-19T18:59:24.693Z,0
2019-06-19T19:00:02.844Z,0
2019-06-19T19:00:45.342Z,0
2019-06-19T19:10:51.154Z,0
2019-06-19T19:11:29.891Z,0
2019-06-19T19:16:13.331Z,0
2019-06-19T19:17:01.369Z,0
2019-06-19T19:17:44.142Z,0
2019-06-19T19:18:24.638Z,0
2019-06-19T19:19:05.117Z,0
2019-06-19T19:19:52.357Z,0
2019-06-19T19:26:04.083Z,0
2019-06-19T19:26:48.049Z,0
2019-06-19T19:27:30.321Z,0
2019-06-19T19:28:23.601Z,0
2019-06-19T19:29:56.978Z,0
2019-06-19T19:30:45.161Z,0
2019-06-19T19:32:49.728Z,0
2019-06-19T19:33:33.955Z,0
2019-06-19T20:20:18.470Z,0
2019-06-19T20:21:02.381Z,0
2019-06-19T20:21:44.641Z,0
2019-06-19T20:22:26.024Z,0
2019-06-19T20:23:09.005Z,0
2019-06-19T20:23:51.580Z,0
2019-06-19T20:25:31.896Z,0
2019-06-19T20:26:14.310Z,0
2019-06-19T20:26:56.547Z,0
2019-06-19T20:29:04.480Z,0
2019-06-19T20:29:44.680Z,0
2019-06-19T20:30:31.885Z,0
2019-06-19T20:31:12.201Z,0
2019-06-19T20:31:52.729Z,0
2019-06-19T20:32:45.759Z,0
2019-06-19T20:33:14.092Z,0
2019-06-19T20:33:55.640Z,0
2019-06-19T20:34:40.780Z,0
2019-06-19T20:35:21.978Z,0
2019-06-19T20:36:02.438Z,0
2019-06-19T20:40:15.940Z,0
2019-06-19T20:41:47.673Z,0
2019-06-19T20:43:50.652Z,0
2019-06-19T20:44:35.334Z,0
2019-06-19T20:47:22.502Z,0
2019-06-19T20:48:06.774Z,0
2019-06-19T20:48:52.070Z,0
2019-06-19T20:49:36.083Z,0
2019-06-19T20:50:18.964Z,0
2019-06-19T20:50:59.381Z,0
2019-06-19T20:51:41.258Z,0
2019-06-19T20:55:21.367Z,0
2019-06-19T20:56:09.074Z,0
2019-06-19T20:56:54.798Z,0
2019-06-19T20:57:38.528Z,0
2019-06-19T20:58:22.964Z,0
2019-06-19T20:59:15.972Z,0
2019-06-19T20:59:58.166Z,0
2019-06-19T21:00:39.474Z,0
2019-06-19T21:01:26.799Z,0
2019-06-19T21:02:08.107Z,0
2019-06-19T21:02:49.228Z,0
2019-06-19T21:04:20.275Z,0
2019-06-19T21:05:50.196Z,0
2019-06-19T21:06:30.650Z,0
2019-06-19T21:07:19.267Z,0
2019-06-19T21:08:02.859Z,0
2019-06-19T21:10:07.330Z,0
2019-06-19T21:10:47.953Z,0
2019-06-19T21:11:29.064Z,0
2019-06-19T21:12:11.288Z,0
2019-06-19T21:14:57.244Z,0
2019-06-19T21:15:43.940Z,0
2019-06-19T21:16:18.423Z,0
2019-06-19T21:17:00.614Z,0
2019-06-19T21:22:28.551Z,0
2019-06-19T21:23:08.328Z,0
2019-06-19T21:23:48.977Z,0
2019-06-19T21:29:16.475Z,0
2019-06-19T21:29:57.045Z,0
2019-06-19T21:30:37.810Z,0
2019-06-19T21:31:18.399Z,0
2019-06-19T21:31:58.870Z,0
2019-06-19T21:32:39.390Z,0
2019-06-19T21:33:19.890Z,0
2019-06-19T21:34:00.402Z,0
2019-06-19T21:34:40.873Z,0
2019-06-19T21:39:26.575Z,0
2019-06-19T21:40:06.926Z,0
2019-06-19T21:40:47.447Z,0
2019-06-19T21:46:56.618Z,0
2019-06-19T21:47:37.105Z,0
2019-06-19T21:48:17.570Z,0
2019-06-19T21:48:58.045Z,0
2019-06-19T21:49:38.521Z,0
2019-06-19T21:50:19.113Z,0
2019-06-19T21:50:59.624Z,0
2019-06-19T21:54:55.129Z,0
2019-06-19T21:55:31.856Z,0
2019-06-19T21:56:12.490Z,0
2019-06-19T21:56:52.887Z,0
2019-06-19T22:01:37.864Z,0
2019-06-19T22:02:18.388Z,0
2019-06-19T22:02:58.934Z,0
2019-06-19T22:03:39.373Z,0
2019-06-19T22:05:00.939Z,0
2019-06-19T22:05:41.390Z,0
2019-06-19T22:06:21.878Z,0
2019-06-19T22:11:08.535Z,0
2019-06-19T22:11:54.581Z,0
2019-06-19T22:15:17.952Z,0
2019-06-19T22:15:58.560Z,0